Time;durP1;ratioP1;P1;durP2;ratioP2;P2;SDS_P1;SDS_P2;PMS_P1;PMS_P2;Temp;Humidity;BMP_temperature;BMP_pressure;BME280_temperature;BME280_humidity;BME280_pressure;Samples;Min_cycle;Max_cycle;Signal;HPM_P1;HPM_P2
2023/07/20 00:00:53;;;;;;;2.55;2.30;;;;;;;;;;6212810;23;20020;-64
2023/07/20 00:03:24;;;;;;;2.42;2.20;;;;;;;;;;6212109;23;20024;-64
2023/07/20 00:05:51;;;;;;;2.88;2.63;;;;;;;;;;6212878;23;20028;-64
2023/07/20 00:08:18;;;;;;;3.88;3.13;;;;;;;;;;6212818;23;20027;-64
2023/07/20 00:10:44;;;;;;;4.47;3.33;;;;;;;;;;6212386;23;20309;-64
2023/07/20 00:13:11;;;;;;;6.70;3.40;;;;;;;;;;6212421;23;20020;-64
2023/07/20 00:15:37;;;;;;;3.65;3.33;;;;;;;;;;6212832;23;20020;-64
2023/07/20 00:18:04;;;;;;;4.50;3.55;;;;;;;;;;6212230;23;20009;-64
2023/07/20 00:20:30;;;;;;;5.18;3.70;;;;;;;;;;6212819;23;20096;-64
2023/07/20 00:22:57;;;;;;;3.83;3.17;;;;;;;;;;6212667;23;20040;-64
2023/07/20 00:25:23;;;;;;;5.47;3.55;;;;;;;;;;6212097;23;20460;-64
2023/07/20 00:27:49;;;;;;;3.60;3.28;;;;;;;;;;6185762;23;20021;-64
2023/07/20 00:30:15;;;;;;;4.10;3.70;;;;;;;;;;6212700;23;20070;-64
2023/07/20 00:32:42;;;;;;;4.57;3.70;;;;;;;;;;6212016;23;20776;-64
2023/07/20 00:35:09;;;;;;;4.65;3.60;;;;;;;;;;6212301;23;20017;-64
2023/07/20 00:37:35;;;;;;;4.35;3.95;;;;;;;;;;6212722;23;20017;-64
2023/07/20 00:40:01;;;;;;;4.53;3.53;;;;;;;;;;6212209;23;20023;-64
2023/07/20 00:42:27;;;;;;;3.47;3.17;;;;;;;;;;6212332;23;20012;-64
2023/07/20 00:44:53;;;;;;;4.53;3.20;;;;;;;;;;6212294;23;20135;-64
2023/07/20 00:47:19;;;;;;;4.32;3.30;;;;;;;;;;6212187;23;20066;-64
2023/07/20 00:49:45;;;;;;;3.80;3.50;;;;;;;;;;6212431;23;20359;-64
2023/07/20 00:52:11;;;;;;;4.20;3.80;;;;;;;;;;6212476;23;20021;-64
2023/07/20 00:54:38;;;;;;;3.70;3.30;;;;;;;;;;6212029;23;20059;-64
2023/07/20 00:57:05;;;;;;;4.40;3.60;;;;;;;;;;6212801;23;20012;-64
2023/07/20 00:59:31;;;;;;;4.07;3.35;;;;;;;;;;6212512;23;20066;-64
2023/07/20 01:01:57;;;;;;;4.10;3.50;;;;;;;;;;6185641;23;20023;-64
2023/07/20 01:04:23;;;;;;;3.70;3.40;;;;;;;;;;6214704;23;20024;-64
2023/07/20 01:06:56;;;;;;;4.57;4.10;;;;;;;;;;6214592;23;20044;-64
2023/07/20 01:09:42;;;;;;;4.70;3.80;;;;;;;;;;6214069;23;20092;-64
2023/07/20 01:12:10;;;;;;;4.75;3.70;;;;;;;;;;6214567;23;20448;-64
2023/07/20 01:14:37;;;;;;;4.40;3.55;;;;;;;;;;6214491;23;20013;-64
2023/07/20 01:17:03;;;;;;;3.78;3.47;;;;;;;;;;6214084;23;20088;-64
2023/07/20 01:19:29;;;;;;;4.53;3.83;;;;;;;;;;6214358;23;20012;-64
2023/07/20 01:21:55;;;;;;;5.18;3.67;;;;;;;;;;6214193;23;20050;-64
2023/07/20 01:24:24;;;;;;;5.78;3.95;;;;;;;;;;6213446;23;20021;-64
2023/07/20 01:27:13;;;;;;;4.03;3.58;;;;;;;;;;6214341;23;20021;-64
2023/07/20 01:29:59;;;;;;;4.32;3.92;;;;;;;;;;6212001;23;20092;-64
2023/07/20 01:32:25;;;;;;;4.15;3.38;;;;;;;;;;6152692;23;20012;-64
2023/07/20 01:34:53;;;;;;;4.32;3.92;;;;;;;;;;6213882;23;20013;-64
2023/07/20 01:37:21;;;;;;;3.88;3.50;;;;;;;;;;6213744;23;20067;-64
2023/07/20 01:39:47;;;;;;;4.07;3.67;;;;;;;;;;6213828;23;20297;-64
2023/07/20 01:42:13;;;;;;;4.00;3.47;;;;;;;;;;6214171;23;20048;-64
2023/07/20 01:44:40;;;;;;;4.60;4.20;;;;;;;;;;6214026;23;20016;-64
2023/07/20 01:47:06;;;;;;;4.45;3.97;;;;;;;;;;6213500;23;20059;-64
2023/07/20 01:49:32;;;;;;;4.95;3.80;;;;;;;;;;6214201;23;20005;-64
2023/07/20 01:51:58;;;;;;;4.32;3.58;;;;;;;;;;6214206;23;20023;-64
2023/07/20 01:54:24;;;;;;;5.35;3.90;;;;;;;;;;6212025;23;20013;-64
2023/07/20 01:56:50;;;;;;;5.10;3.50;;;;;;;;;;6214145;23;20012;-64
2023/07/20 01:59:16;;;;;;;4.22;3.83;;;;;;;;;;6214017;23;20013;-64
2023/07/20 02:01:42;;;;;;;4.68;3.97;;;;;;;;;;6213221;23;20008;-64
2023/07/20 02:04:08;;;;;;;6.90;4.30;;;;;;;;;;6213930;23;20032;-64
2023/07/20 02:06:34;;;;;;;4.38;3.72;;;;;;;;;;6213913;23;20021;-64
2023/07/20 02:09:00;;;;;;;5.20;3.78;;;;;;;;;;6213425;23;20100;-64
2023/07/20 02:11:26;;;;;;;5.13;4.00;;;;;;;;;;6214012;23;20024;-64
2023/07/20 02:13:52;;;;;;;5.47;4.35;;;;;;;;;;6213650;23;20091;-64
2023/07/20 02:16:18;;;;;;;6.15;4.43;;;;;;;;;;6213446;23;20048;-64
2023/07/20 02:18:44;;;;;;;6.03;4.82;;;;;;;;;;6213576;23;20020;-64
2023/07/20 02:21:10;;;;;;;5.22;3.83;;;;;;;;;;6213724;23;20012;-64
2023/07/20 02:23:36;;;;;;;5.85;4.65;;;;;;;;;;6212972;23;20027;-64
2023/07/20 02:26:02;;;;;;;4.28;3.85;;;;;;;;;;6213664;23;20020;-64
2023/07/20 02:28:28;;;;;;;4.18;3.78;;;;;;;;;;6213800;23;20044;-64
2023/07/20 02:30:55;;;;;;;4.18;3.80;;;;;;;;;;6213377;23;20023;-64
2023/07/20 02:33:21;;;;;;;6.15;4.20;;;;;;;;;;6213568;23;20021;-64
2023/07/20 02:35:47;;;;;;;4.15;3.60;;;;;;;;;;6213465;23;20021;-64
2023/07/20 02:38:13;;;;;;;4.95;4.38;;;;;;;;;;6212874;23;20475;-64
2023/07/20 02:40:39;;;;;;;4.45;3.78;;;;;;;;;;6213902;23;20470;-64
2023/07/20 02:43:05;;;;;;;3.75;3.35;;;;;;;;;;6213432;23;20020;-64
2023/07/20 02:45:31;;;;;;;6.70;3.85;;;;;;;;;;6212937;23;20012;-64
2023/07/20 02:47:57;;;;;;;4.32;3.72;;;;;;;;;;6213775;23;20016;-64
2023/07/20 02:50:23;;;;;;;4.15;3.75;;;;;;;;;;6213660;23;20017;-64
2023/07/20 02:52:50;;;;;;;5.78;3.72;;;;;;;;;;6213057;23;20017;-64
2023/07/20 02:55:16;;;;;;;4.20;3.80;;;;;;;;;;6186599;23;20023;-64
2023/07/20 02:57:42;;;;;;;3.53;3.22;;;;;;;;;;6213514;23;20332;-64
2023/07/20 03:00:09;;;;;;;4.25;3.80;;;;;;;;;;6213047;23;20378;-64
2023/07/20 03:02:35;;;;;;;5.07;4.47;;;;;;;;;;6213561;23;20055;-64
2023/07/20 03:05:02;;;;;;;5.78;3.65;;;;;;;;;;6213335;23;20371;-64
2023/07/20 03:07:28;;;;;;;4.85;3.50;;;;;;;;;;6211206;23;20048;-64
2023/07/20 03:09:55;;;;;;;4.00;3.60;;;;;;;;;;6213323;23;20032;-64
2023/07/20 03:12:21;;;;;;;4.20;3.80;;;;;;;;;;6213150;23;20048;-64
2023/07/20 03:14:47;;;;;;;4.22;3.45;;;;;;;;;;6213042;23;20017;-64
2023/07/20 03:17:13;;;;;;;4.43;3.95;;;;;;;;;;6213182;23;20058;-64
2023/07/20 03:19:40;;;;;;;4.47;4.07;;;;;;;;;;6213385;23;20016;-64
2023/07/20 03:22:06;;;;;;;3.95;3.55;;;;;;;;;;6212475;23;20096;-64
2023/07/20 03:24:32;;;;;;;3.85;3.55;;;;;;;;;;6212701;23;20016;-64
2023/07/20 03:26:59;;;;;;;4.72;3.55;;;;;;;;;;6212969;23;20016;-64
2023/07/20 03:29:25;;;;;;;4.20;3.50;;;;;;;;;;6212412;23;20048;-64
2023/07/20 03:31:51;;;;;;;3.97;3.58;;;;;;;;;;6212678;23;20013;-64
2023/07/20 03:34:17;;;;;;;5.03;3.83;;;;;;;;;;6212673;23;20436;-64
2023/07/20 03:36:43;;;;;;;4.80;4.10;;;;;;;;;;6212104;23;20023;-64
2023/07/20 03:39:09;;;;;;;4.45;4.05;;;;;;;;;;6213206;23;20008;-64
2023/07/20 03:41:36;;;;;;;5.15;4.05;;;;;;;;;;6185779;23;20332;-64
2023/07/20 03:44:03;;;;;;;4.32;3.92;;;;;;;;;;6210993;23;20360;-64
2023/07/20 03:46:29;;;;;;;5.22;3.70;;;;;;;;;;6213049;23;20482;-64
2023/07/20 03:48:55;;;;;;;4.70;3.92;;;;;;;;;;6213160;23;20044;-64
2023/07/20 03:51:21;;;;;;;5.03;4.22;;;;;;;;;;6212581;23;20020;-64
2023/07/20 03:53:47;;;;;;;4.85;3.97;;;;;;;;;;6212706;23;20063;-64
2023/07/20 03:56:13;;;;;;;4.75;3.97;;;;;;;;;;6212964;23;20454;-64
2023/07/20 03:58:39;;;;;;;4.78;3.40;;;;;;;;;;6212503;23;20024;-64
2023/07/20 04:01:05;;;;;;;4.40;3.85;;;;;;;;;;6212967;23;20296;-64
2023/07/20 04:03:31;;;;;;;4.38;3.65;;;;;;;;;;6186010;23;20016;-64
2023/07/20 04:05:57;;;;;;;6.18;4.25;;;;;;;;;;6212423;23;20012;-64
2023/07/20 04:08:24;;;;;;;4.55;4.15;;;;;;;;;;6186034;23;20016;-64
2023/07/20 04:10:50;;;;;;;5.47;4.25;;;;;;;;;;6212820;23;20047;-64
2023/07/20 04:13:16;;;;;;;6.78;5.05;;;;;;;;;;6212283;23;20012;-64
2023/07/20 04:15:43;;;;;;;4.85;4.32;;;;;;;;;;6213283;23;20009;-64
2023/07/20 04:18:09;;;;;;;4.75;4.30;;;;;;;;;;6213295;23;20320;-64
2023/07/20 04:20:35;;;;;;;4.80;4.40;;;;;;;;;;6212751;23;20536;-64
2023/07/20 04:23:01;;;;;;;5.47;4.80;;;;;;;;;;6212955;23;20074;-64
2023/07/20 04:25:27;;;;;;;4.82;4.28;;;;;;;;;;6213127;23;20016;-64
2023/07/20 04:27:53;;;;;;;4.90;4.40;;;;;;;;;;6211439;23;20027;-64
2023/07/20 04:30:20;;;;;;;4.65;4.15;;;;;;;;;;6186073;23;20028;-64
2023/07/20 04:32:46;;;;;;;4.97;4.55;;;;;;;;;;6212572;23;20055;-64
2023/07/20 04:35:17;;;;;;;4.82;4.32;;;;;;;;;;6212437;23;20415;-64
2023/07/20 04:37:45;;;;;;;5.07;4.13;;;;;;;;;;6213008;23;20025;-64
2023/07/20 04:40:12;;;;;;;5.82;4.15;;;;;;;;;;6213057;23;20012;-64
2023/07/20 04:42:38;;;;;;;4.00;3.70;;;;;;;;;;6212214;23;20023;-64
2023/07/20 04:45:04;;;;;;;4.43;3.90;;;;;;;;;;6212860;23;20012;-64
2023/07/20 04:47:30;;;;;;;5.75;3.67;;;;;;;;;;6212944;23;20075;-64
2023/07/20 04:49:56;;;;;;;5.75;3.58;;;;;;;;;;6213049;23;20067;-64
2023/07/20 04:52:22;;;;;;;5.20;4.00;;;;;;;;;;6212514;23;20060;-64
2023/07/20 04:54:48;;;;;;;4.80;3.50;;;;;;;;;;6212651;23;20413;-64
2023/07/20 04:57:14;;;;;;;4.25;3.40;;;;;;;;;;6212808;23;20092;-64
2023/07/20 04:59:40;;;;;;;4.20;3.28;;;;;;;;;;6212038;23;20024;-64
2023/07/20 05:02:07;;;;;;;5.95;3.50;;;;;;;;;;6212654;23;20020;-64
2023/07/20 05:04:33;;;;;;;4.43;3.38;;;;;;;;;;6209655;23;20447;-64
2023/07/20 05:06:59;;;;;;;3.90;3.50;;;;;;;;;;6212203;23;20705;-64
2023/07/20 05:09:25;;;;;;;4.30;3.72;;;;;;;;;;6212502;23;20087;-64
2023/07/20 05:11:51;;;;;;;3.85;3.22;;;;;;;;;;6212607;23;20336;-64
2023/07/20 05:14:17;;;;;;;4.78;3.50;;;;;;;;;;6185345;23;20017;-64
2023/07/20 05:16:43;;;;;;;3.67;3.38;;;;;;;;;;6212623;23;20087;-64
2023/07/20 05:19:09;;;;;;;4.22;3.15;;;;;;;;;;6212893;23;20024;-64
2023/07/20 05:21:35;;;;;;;5.28;4.00;;;;;;;;;;6212317;23;20036;-64
2023/07/20 05:24:01;;;;;;;6.18;4.47;;;;;;;;;;6212851;23;20016;-64
2023/07/20 05:26:27;;;;;;;4.03;3.28;;;;;;;;;;6212791;23;20024;-64
2023/07/20 05:28:53;;;;;;;5.60;3.85;;;;;;;;;;6212381;23;20087;-64
2023/07/20 05:31:19;;;;;;;4.35;3.63;;;;;;;;;;6212687;23;20028;-64
2023/07/20 05:33:45;;;;;;;4.38;3.47;;;;;;;;;;6212664;23;20028;-64
2023/07/20 05:36:11;;;;;;;7.20;3.47;;;;;;;;;;6212024;23;20028;-64
2023/07/20 05:38:38;;;;;;;5.97;3.45;;;;;;;;;;6212756;23;20009;-64
2023/07/20 05:41:04;;;;;;;3.90;3.38;;;;;;;;;;6212627;23;20019;-64
2023/07/20 05:43:31;;;;;;;6.32;3.53;;;;;;;;;;6212178;23;20012;-64
2023/07/20 05:45:57;;;;;;;4.32;3.25;;;;;;;;;;6212770;23;20034;-64
2023/07/20 05:48:24;;;;;;;3.85;2.97;;;;;;;;;;6213154;23;20013;-64
2023/07/20 05:50:50;;;;;;;6.38;3.20;;;;;;;;;;6214099;23;20013;-64
2023/07/20 05:53:16;;;;;;;3.50;2.85;;;;;;;;;;6214511;23;20023;-64
2023/07/20 05:55:42;;;;;;;3.40;2.85;;;;;;;;;;6214620;23;20016;-64
2023/07/20 05:58:08;;;;;;;3.20;2.90;;;;;;;;;;6213877;23;20023;-64
2023/07/20 06:00:34;;;;;;;3.50;2.58;;;;;;;;;;6214497;23;20079;-64
2023/07/20 06:03:00;;;;;;;3.13;2.60;;;;;;;;;;6214343;23;20028;-64
2023/07/20 06:05:26;;;;;;;6.03;2.75;;;;;;;;;;6214055;23;20451;-64
2023/07/20 06:07:52;;;;;;;6.25;2.60;;;;;;;;;;6214458;23;20020;-64
2023/07/20 06:10:18;;;;;;;2.85;2.42;;;;;;;;;;6214796;23;20013;-64
2023/07/20 06:12:44;;;;;;;2.67;2.20;;;;;;;;;;6213545;23;20039;-64
2023/07/20 06:15:27;;;;;;;3.90;2.30;;;;;;;;;;6214124;23;20012;-64
2023/07/20 06:17:54;;;;;;;2.67;1.70;;;;;;;;;;6214198;23;20091;-64
2023/07/20 06:20:20;;;;;;;4.05;1.70;;;;;;;;;;6213967;23;20013;-64
2023/07/20 06:22:46;;;;;;;4.00;1.50;;;;;;;;;;6213936;23;20063;-64
2023/07/20 06:25:12;;;;;;;3.30;1.40;;;;;;;;;;6214185;23;20013;-64
2023/07/20 06:27:38;;;;;;;2.67;1.50;;;;;;;;;;6210079;23;20023;-64
2023/07/20 06:30:04;;;;;;;2.15;1.40;;;;;;;;;;6212870;23;20020;-64
2023/07/20 06:32:30;;;;;;;4.45;1.20;;;;;;;;;;6207294;23;20032;-63
2023/07/20 06:34:57;;;;;;;3.67;1.17;;;;;;;;;;6205906;23;20079;-63
2023/07/20 06:37:23;;;;;;;3.05;1.15;;;;;;;;;;6210844;23;20013;-63
2023/07/20 06:39:49;;;;;;;3.17;1.10;;;;;;;;;;6212067;23;20071;-64
2023/07/20 06:42:15;;;;;;;4.40;1.50;;;;;;;;;;6211248;23;20012;-67
2023/07/20 06:44:41;;;;;;;4.00;1.52;;;;;;;;;;6185511;23;20075;-68
2023/07/20 06:47:07;;;;;;;2.42;1.10;;;;;;;;;;6211587;23;20087;-69
2023/07/20 06:49:33;;;;;;;3.17;1.35;;;;;;;;;;6185329;23;20016;-68
2023/07/20 06:52:00;;;;;;;3.08;1.33;;;;;;;;;;6208801;23;20016;-66
2023/07/20 06:54:26;;;;;;;3.05;1.35;;;;;;;;;;6211356;23;20416;-67
2023/07/20 06:56:52;;;;;;;5.80;1.05;;;;;;;;;;6211992;23;20019;-67
2023/07/20 06:59:18;;;;;;;4.30;1.10;;;;;;;;;;6212037;23;20016;-67
2023/07/20 07:01:44;;;;;;;2.65;1.10;;;;;;;;;;6212642;23;20313;-67
2023/07/20 07:04:10;;;;;;;2.65;1.23;;;;;;;;;;6201637;23;20020;-65
2023/07/20 07:06:37;;;;;;;5.45;1.10;;;;;;;;;;6212307;23;20016;-65
2023/07/20 07:09:03;;;;;;;2.05;1.20;;;;;;;;;;6212165;23;20013;-64
2023/07/20 07:11:30;;;;;;;2.45;1.27;;;;;;;;;;6211777;23;20091;-64
2023/07/20 07:13:56;;;;;;;4.75;1.40;;;;;;;;;;6212440;23;20409;-65
2023/07/20 07:16:22;;;;;;;2.88;1.00;;;;;;;;;;6212131;23;20027;-64
2023/07/20 07:18:48;;;;;;;3.83;1.17;;;;;;;;;;6211961;23;20023;-63
2023/07/20 07:21:14;;;;;;;3.38;1.20;;;;;;;;;;6212178;23;20106;-64
2023/07/20 07:23:40;;;;;;;3.33;1.17;;;;;;;;;;6211472;23;20027;-63
2023/07/20 07:26:06;;;;;;;4.00;0.85;;;;;;;;;;6211337;23;20023;-65
2023/07/20 07:28:32;;;;;;;6.20;1.00;;;;;;;;;;6211087;23;20491;-64
2023/07/20 07:30:59;;;;;;;1.67;0.70;;;;;;;;;;6212223;23;20050;-63
2023/07/20 07:33:25;;;;;;;1.92;0.85;;;;;;;;;;6211216;23;20424;-63
2023/07/20 07:35:54;;;;;;;2.65;0.85;;;;;;;;;;6209646;23;20020;-63
2023/07/20 07:38:20;;;;;;;4.97;0.90;;;;;;;;;;6211098;23;20371;-64
2023/07/20 07:40:46;;;;;;;2.55;0.80;;;;;;;;;;6211314;23;20447;-64
2023/07/20 07:43:13;;;;;;;4.25;1.20;;;;;;;;;;6208635;23;20028;-62
2023/07/20 07:45:40;;;;;;;9.75;1.35;;;;;;;;;;6209228;23;20027;-64
2023/07/20 07:48:06;;;;;;;2.53;1.10;;;;;;;;;;6211110;23;20048;-64
2023/07/20 07:50:33;;;;;;;4.15;0.90;;;;;;;;;;6212020;23;20066;-63
2023/07/20 07:52:59;;;;;;;2.80;1.00;;;;;;;;;;6211304;23;20052;-63
2023/07/20 07:55:28;;;;;;;1.48;1.00;;;;;;;;;;6211163;23;20013;-63
2023/07/20 07:57:54;;;;;;;5.50;1.10;;;;;;;;;;6211050;23;20012;-67
2023/07/20 08:00:21;;;;;;;2.17;1.10;;;;;;;;;;6211447;23;20019;-64
2023/07/20 08:02:48;;;;;;;2.38;0.77;;;;;;;;;;6208736;23;20013;-64
2023/07/20 08:05:14;;;;;;;3.88;0.95;;;;;;;;;;6210012;23;20058;-64
2023/07/20 08:07:40;;;;;;;4.00;1.00;;;;;;;;;;6210472;23;20890;-63
2023/07/20 08:10:06;;;;;;;4.50;0.85;;;;;;;;;;6211155;23;20027;-65
2023/07/20 08:12:32;;;;;;;2.30;0.90;;;;;;;;;;6211351;23;20287;-65
2023/07/20 08:14:58;;;;;;;4.18;0.80;;;;;;;;;;6211067;23;20971;-63
2023/07/20 08:17:24;;;;;;;4.25;1.23;;;;;;;;;;6209692;23;20087;-65
2023/07/20 08:19:50;;;;;;;4.53;1.05;;;;;;;;;;6209896;23;20740;-63
2023/07/20 08:22:16;;;;;;;2.17;0.70;;;;;;;;;;6208358;23;20059;-64
2023/07/20 08:24:43;;;;;;;2.45;0.90;;;;;;;;;;6210247;23;20020;-64
2023/07/20 08:27:10;;;;;;;3.25;1.00;;;;;;;;;;6210525;23;20094;-65
2023/07/20 08:29:36;;;;;;;3.53;0.95;;;;;;;;;;6210078;23;20301;-65
2023/07/20 08:32:03;;;;;;;6.22;1.00;;;;;;;;;;6207982;23;20432;-65
2023/07/20 08:34:29;;;;;;;1.73;0.85;;;;;;;;;;6210471;23;20023;-65
2023/07/20 08:36:56;;;;;;;2.35;1.00;;;;;;;;;;6207695;23;20436;-64
2023/07/20 08:39:22;;;;;;;5.05;1.10;;;;;;;;;;6210387;23;20085;-64
2023/07/20 08:41:49;;;;;;;2.75;0.93;;;;;;;;;;6207649;23;20067;-63
2023/07/20 08:44:15;;;;;;;5.53;1.00;;;;;;;;;;6210755;23;20027;-64
2023/07/20 08:46:42;;;;;;;4.85;1.00;;;;;;;;;;6210724;23;20035;-64
2023/07/20 08:49:08;;;;;;;3.67;1.00;;;;;;;;;;6209796;23;20021;-63
2023/07/20 08:51:34;;;;;;;3.45;0.82;;;;;;;;;;6207622;23;20015;-65
2023/07/20 08:54:00;;;;;;;2.28;0.73;;;;;;;;;;6211132;23;20555;-64
2023/07/20 08:56:27;;;;;;;3.75;0.88;;;;;;;;;;6210541;23;20015;-65
2023/07/20 08:58:56;;;;;;;1.92;0.70;;;;;;;;;;6207987;23;20291;-65
2023/07/20 09:01:22;;;;;;;2.22;1.00;;;;;;;;;;6209784;23;20378;-65
2023/07/20 09:03:49;;;;;;;1.60;0.65;;;;;;;;;;6209773;23;20028;-64
2023/07/20 09:06:15;;;;;;;4.32;0.80;;;;;;;;;;6211003;23;20032;-65
2023/07/20 09:08:42;;;;;;;1.55;0.90;;;;;;;;;;6210462;23;20012;-68
2023/07/20 09:11:08;;;;;;;1.55;0.75;;;;;;;;;;6207346;23;20023;-65
2023/07/20 09:13:35;;;;;;;1.40;0.75;;;;;;;;;;6208974;23;20039;-64
2023/07/20 09:16:01;;;;;;;5.50;2.15;;;;;;;;;;6210959;23;20043;-63
2023/07/20 09:18:30;;;;;;;3.90;1.20;;;;;;;;;;6210143;23;20019;-63
2023/07/20 09:21:01;;;;;;;1.63;0.68;;;;;;;;;;6210777;23;20012;-64
2023/07/20 09:23:31;;;;;;;0.80;0.50;;;;;;;;;;6211418;23;20021;-64
2023/07/20 09:25:58;;;;;;;2.35;0.70;;;;;;;;;;6212058;23;20503;-64
2023/07/20 09:28:24;;;;;;;1.98;0.60;;;;;;;;;;6212767;23;20016;-64
2023/07/20 09:30:50;;;;;;;1.15;0.73;;;;;;;;;;6213162;23;20393;-65
2023/07/20 09:33:21;;;;;;;3.95;0.80;;;;;;;;;;6212176;23;20087;-64
2023/07/20 09:35:47;;;;;;;1.30;0.63;;;;;;;;;;6209831;23;20021;-64
2023/07/20 09:38:14;;;;;;;1.30;0.70;;;;;;;;;;6212453;23;20595;-66
2023/07/20 09:40:41;;;;;;;1.88;0.70;;;;;;;;;;6212116;23;20016;-65
2023/07/20 09:43:10;;;;;;;1.30;0.90;;;;;;;;;;6211688;23;20047;-65
2023/07/20 09:45:40;;;;;;;0.75;0.55;;;;;;;;;;6212660;23;20095;-64
2023/07/20 09:48:07;;;;;;;2.75;0.95;;;;;;;;;;6212159;23;20024;-65
2023/07/20 09:50:33;;;;;;;2.53;0.95;;;;;;;;;;6212935;23;20012;-66
2023/07/20 09:53:02;;;;;;;3.10;0.82;;;;;;;;;;6212523;23;20495;-65
2023/07/20 09:55:29;;;;;;;2.33;0.90;;;;;;;;;;6185396;23;20016;-65
2023/07/20 09:57:56;;;;;;;1.30;0.80;;;;;;;;;;6212510;23;20047;-65
2023/07/20 10:00:22;;;;;;;2.95;1.02;;;;;;;;;;6212556;23;20098;-65
2023/07/20 10:02:50;;;;;;;2.42;1.00;;;;;;;;;;6212160;23;20012;-65
2023/07/20 10:05:16;;;;;;;1.85;0.70;;;;;;;;;;6209926;23;20008;-64
2023/07/20 10:07:47;;;;;;;2.35;1.10;;;;;;;;;;6212578;23;20039;-64
2023/07/20 10:10:15;;;;;;;3.78;1.13;;;;;;;;;;6211152;23;20016;-64
2023/07/20 10:12:42;;;;;;;2.17;0.85;;;;;;;;;;6181538;23;20020;-64
2023/07/20 10:15:11;;;;;;;3.20;1.10;;;;;;;;;;6211269;23;20009;-64
2023/07/20 10:17:40;;;;;;;1.67;0.90;;;;;;;;;;6211153;23;20012;-64
2023/07/20 10:20:07;;;;;;;2.60;1.08;;;;;;;;;;6212980;23;20362;-64
2023/07/20 10:22:36;;;;;;;1.92;1.00;;;;;;;;;;6212507;23;20027;-64
2023/07/20 10:25:04;;;;;;;1.10;0.80;;;;;;;;;;6211988;23;20009;-65
2023/07/20 10:27:30;;;;;;;3.28;1.50;;;;;;;;;;6212474;23;20755;-65
2023/07/20 10:29:58;;;;;;;2.63;1.13;;;;;;;;;;6211993;23;20074;-66
2023/07/20 10:32:25;;;;;;;1.15;0.98;;;;;;;;;;6211777;23;20016;-65
2023/07/20 10:34:52;;;;;;;2.05;1.02;;;;;;;;;;6207146;23;20028;-64
2023/07/20 10:37:37;;;;;;;1.92;0.73;;;;;;;;;;6205173;23;20027;-64
2023/07/20 10:40:24;;;;;;;3.13;1.48;;;;;;;;;;6183789;23;20092;-64
2023/07/20 10:42:50;;;;;;;3.50;1.00;;;;;;;;;;6207217;23;20008;-65
2023/07/20 10:45:18;;;;;;;2.85;1.00;;;;;;;;;;6203178;23;20083;-64
2023/07/20 10:47:47;;;;;;;2.60;1.00;;;;;;;;;;6211947;23;20083;-64
2023/07/20 10:50:13;;;;;;;1.48;0.98;;;;;;;;;;6210295;23;20092;-64
2023/07/20 10:52:42;;;;;;;1.63;0.88;;;;;;;;;;6212179;23;20020;-64
2023/07/20 10:55:12;;;;;;;2.70;1.00;;;;;;;;;;6212867;23;20017;-66
2023/07/20 10:57:38;;;;;;;1.90;1.00;;;;;;;;;;6185748;23;20095;-65
2023/07/20 11:00:12;;;;;;;1.10;0.80;;;;;;;;;;6212633;23;20435;-65
2023/07/20 11:02:44;;;;;;;1.92;0.90;;;;;;;;;;6213341;23;20013;-65
2023/07/20 11:05:40;;;;;;;3.08;1.08;;;;;;;;;;6212643;23;20083;-64
2023/07/20 11:08:09;;;;;;;1.45;0.80;;;;;;;;;;6186734;23;20019;-65
2023/07/20 11:10:36;;;;;;;1.90;0.85;;;;;;;;;;6212624;23;20063;-65
2023/07/20 11:13:21;;;;;;;1.50;0.80;;;;;;;;;;6212634;23;20099;-65
2023/07/20 11:15:56;;;;;;;3.42;1.10;;;;;;;;;;6212167;23;20020;-66
2023/07/20 11:18:25;;;;;;;3.45;0.95;;;;;;;;;;6212758;23;20009;-66
2023/07/20 11:20:52;;;;;;;2.88;0.70;;;;;;;;;;6212698;23;20016;-65
2023/07/20 11:23:18;;;;;;;1.92;0.80;;;;;;;;;;6212336;23;20039;-68
2023/07/20 11:25:45;;;;;;;1.17;0.88;;;;;;;;;;6212228;23;20021;-65
2023/07/20 11:28:11;;;;;;;1.33;0.85;;;;;;;;;;6212985;23;20354;-65
2023/07/20 11:30:40;;;;;;;1.95;0.90;;;;;;;;;;6186038;23;20024;-65
2023/07/20 11:33:06;;;;;;;0.98;0.73;;;;;;;;;;6211795;23;20060;-65
2023/07/20 11:35:36;;;;;;;1.48;0.50;;;;;;;;;;6211960;23;20024;-65
2023/07/20 11:38:02;;;;;;;1.30;0.75;;;;;;;;;;6211670;23;20091;-65
2023/07/20 11:40:28;;;;;;;1.17;0.90;;;;;;;;;;6212587;23;20013;-65
2023/07/20 11:42:55;;;;;;;0.95;0.55;;;;;;;;;;6212378;23;20439;-65
2023/07/20 11:45:21;;;;;;;2.33;0.95;;;;;;;;;;6211483;23;20023;-65
2023/07/20 11:47:47;;;;;;;1.92;0.80;;;;;;;;;;6212424;23;20020;-65
2023/07/20 11:50:13;;;;;;;1.85;0.80;;;;;;;;;;6212406;23;20020;-65
2023/07/20 11:52:40;;;;;;;2.08;1.17;;;;;;;;;;6211134;23;20032;-65
2023/07/20 11:55:07;;;;;;;1.38;0.90;;;;;;;;;;6208859;23;20020;-64
2023/07/20 11:57:33;;;;;;;1.02;0.90;;;;;;;;;;6211949;23;20056;-64
2023/07/20 12:00:05;;;;;;;1.60;0.90;;;;;;;;;;6211466;23;20635;-66
2023/07/20 12:02:31;;;;;;;1.48;0.80;;;;;;;;;;6211747;23;20019;-65
2023/07/20 12:04:57;;;;;;;1.25;0.70;;;;;;;;;;6207214;23;20074;-65
2023/07/20 12:07:23;;;;;;;2.17;0.90;;;;;;;;;;6211559;23;20063;-65
2023/07/20 12:10:09;;;;;;;1.52;0.73;;;;;;;;;;6211822;23;20329;-65
2023/07/20 12:12:39;;;;;;;0.98;0.75;;;;;;;;;;6211646;23;20486;-66
2023/07/20 12:15:18;;;;;;;3.70;0.88;;;;;;;;;;6211754;23;20015;-65
2023/07/20 12:17:45;;;;;;;2.03;0.90;;;;;;;;;;6211920;23;20005;-64
2023/07/20 12:20:11;;;;;;;1.88;0.80;;;;;;;;;;6209003;23;20012;-63
2023/07/20 12:22:41;;;;;;;0.90;0.70;;;;;;;;;;6211474;23;20093;-63
2023/07/20 12:25:08;;;;;;;3.28;1.02;;;;;;;;;;6211480;23;20008;-63
2023/07/20 12:27:37;;;;;;;2.30;1.00;;;;;;;;;;6208775;23;20020;-64
2023/07/20 12:30:04;;;;;;;1.10;0.70;;;;;;;;;;6211293;23;20470;-65
2023/07/20 12:32:30;;;;;;;2.45;0.70;;;;;;;;;;6211094;23;20012;-64
2023/07/20 12:34:56;;;;;;;0.90;0.70;;;;;;;;;;6211478;23;20012;-64
2023/07/20 12:37:22;;;;;;;1.88;0.70;;;;;;;;;;6210345;23;20012;-64
2023/07/20 12:39:48;;;;;;;2.88;0.57;;;;;;;;;;6209760;23;20013;-64
2023/07/20 12:42:16;;;;;;;2.47;0.52;;;;;;;;;;6209813;23;20013;-65
2023/07/20 12:44:42;;;;;;;3.55;0.90;;;;;;;;;;6184385;23;20092;-65
2023/07/20 12:47:08;;;;;;;2.33;0.52;;;;;;;;;;6211781;23;20380;-65
2023/07/20 12:49:34;;;;;;;1.55;0.80;;;;;;;;;;6211241;23;20016;-68
2023/07/20 12:52:00;;;;;;;2.00;0.80;;;;;;;;;;6210782;23;20019;-68
2023/07/20 12:54:26;;;;;;;2.95;0.75;;;;;;;;;;6209326;23;20017;-68
2023/07/20 12:56:52;;;;;;;2.15;0.70;;;;;;;;;;6212054;23;20013;-67
2023/07/20 12:59:18;;;;;;;3.08;0.93;;;;;;;;;;6212593;23;20013;-65
2023/07/20 13:01:45;;;;;;;2.25;0.80;;;;;;;;;;6213933;23;20059;-69
2023/07/20 13:04:11;;;;;;;1.52;0.90;;;;;;;;;;6187164;23;20738;-66
2023/07/20 13:06:37;;;;;;;3.03;0.70;;;;;;;;;;6213061;23;20048;-68
2023/07/20 13:09:04;;;;;;;1.80;0.75;;;;;;;;;;6213691;23;20436;-66
2023/07/20 13:11:30;;;;;;;4.05;1.30;;;;;;;;;;6209722;23;20648;-67
2023/07/20 13:13:56;;;;;;;2.30;0.90;;;;;;;;;;6185733;23;20457;-64
2023/07/20 13:16:22;;;;;;;3.63;1.33;;;;;;;;;;6212509;23;20012;-64
2023/07/20 13:18:48;;;;;;;3.50;1.23;;;;;;;;;;6212750;23;20094;-64
2023/07/20 13:21:15;;;;;;;2.88;1.38;;;;;;;;;;6213034;23;20016;-64
2023/07/20 13:23:41;;;;;;;5.65;1.40;;;;;;;;;;6213726;23;20372;-65
2023/07/20 13:26:08;;;;;;;2.92;1.33;;;;;;;;;;6213126;23;20087;-65
2023/07/20 13:28:34;;;;;;;3.28;1.38;;;;;;;;;;6210138;23;20012;-65
2023/07/20 13:31:00;;;;;;;3.28;1.38;;;;;;;;;;6211572;23;20013;-65
2023/07/20 13:33:27;;;;;;;2.38;1.50;;;;;;;;;;6207875;23;20019;-65
2023/07/20 13:35:52;;;;;;;2.67;1.40;;;;;;;;;;6209723;23;20021;-64
2023/07/20 13:38:19;;;;;;;6.55;1.70;;;;;;;;;;6212449;23;20013;-65
2023/07/20 13:40:45;;;;;;;5.25;1.60;;;;;;;;;;6212965;23;20332;-65
2023/07/20 13:43:11;;;;;;;5.93;1.73;;;;;;;;;;6211884;23;20100;-63
2023/07/20 13:45:37;;;;;;;1.77;1.10;;;;;;;;;;6211640;23;20344;-65
2023/07/20 13:48:03;;;;;;;2.65;1.15;;;;;;;;;;6212374;23;20433;-64
2023/07/20 13:50:29;;;;;;;4.82;1.40;;;;;;;;;;6211554;23;20404;-64
2023/07/20 13:52:55;;;;;;;4.22;1.40;;;;;;;;;;6212794;23;20071;-65
2023/07/20 13:55:21;;;;;;;2.85;1.30;;;;;;;;;;6212864;23;20531;-64
2023/07/20 13:57:48;;;;;;;5.07;1.52;;;;;;;;;;6211787;23;20019;-64
2023/07/20 14:00:14;;;;;;;2.28;1.60;;;;;;;;;;6212141;23;20013;-65
2023/07/20 14:02:40;;;;;;;4.82;1.77;;;;;;;;;;6212098;23;20044;-64
2023/07/20 14:05:07;;;;;;;2.35;1.23;;;;;;;;;;6211895;23;20019;-65
2023/07/20 14:07:33;;;;;;;2.60;1.23;;;;;;;;;;6212500;23;20023;-64
2023/07/20 14:09:59;;;;;;;4.93;1.52;;;;;;;;;;6211526;23;20019;-64
2023/07/20 14:12:25;;;;;;;2.72;1.40;;;;;;;;;;6199540;23;20089;-65
2023/07/20 14:14:51;;;;;;;2.13;0.90;;;;;;;;;;6207342;23;20047;-63
2023/07/20 14:17:17;;;;;;;1.75;1.13;;;;;;;;;;6209645;23;20316;-64
2023/07/20 14:19:43;;;;;;;1.33;0.80;;;;;;;;;;6210114;23;20360;-64
2023/07/20 14:22:09;;;;;;;0.95;0.52;;;;;;;;;;6206041;23;20023;-65
2023/07/20 14:24:35;;;;;;;0.95;0.60;;;;;;;;;;6209688;23;20502;-65
2023/07/20 14:27:01;;;;;;;2.22;0.63;;;;;;;;;;6209605;23;20016;-65
2023/07/20 14:29:31;;;;;;;2.35;0.65;;;;;;;;;;6209101;23;20597;-65
2023/07/20 14:31:57;;;;;;;6.07;1.40;;;;;;;;;;6207318;23;20017;-64
2023/07/20 14:34:23;;;;;;;5.05;1.85;;;;;;;;;;6210100;23;20352;-65
2023/07/20 14:36:49;;;;;;;2.42;1.25;;;;;;;;;;6209437;23;20048;-65
2023/07/20 14:39:16;;;;;;;1.80;1.20;;;;;;;;;;6210327;23;20012;-65
2023/07/20 14:41:42;;;;;;;1.98;1.27;;;;;;;;;;6210516;23;20095;-63